Cypress River, Canada
Current Conditions -  °F | °C
As of 5:00 PM on Tuesday 27 Jan 2015 (Local Time) from CYPG Reporting Station
Broken Clouds Broken Clouds  
Wind Chill: 22°   Ceiling: 11000
Heat Index: 32°   Visibility: 15mi
Dew Point: 30°   Wind: 15mph
Humidity: 93%   Direction: 140°SE
Pressure: 29.9"   Gusts: NA
Location:  49.55°N, 99.08°W
Report Text: CYPG 272300Z 14013KT 15SM SCT008 BKN110 M00/M01 A2990 RMKSF4AC3 LAST OBS/NEXT 281200 UTC SLP141
Loading
Personal Weather Stations






























Interactive Weather Map New forecast layout! Learn more

10-Day Weather Forecast

Advertisements
Track Severe Weather on mobile